Terminal Aerodrome Forecast
Issued by NWS

Home | Current Version | Previous Version | Text Only | Print | Product List | Glossary On
Versions: 1 2 3 4 5 6 7 8 9 10 11 12 13 14 15 16 17 18
000
FTUS45 KABQ 222333
TAFROW
TAF
KROW 222333Z 2300/2324 09006KT P6SM FEW100
     FM230100 02010KT P6SM VCSH SCT050 BKN090
      TEMPO 2301/2303 VRB25G33KT 6SM TSRA OVC050CB
     FM230400 06010KT P6SM BKN035
     FM230900 01018G25KT P6SM VCSH OVC030
     FM231600 04008KT P6SM SCT050=

USA.gov is the U.S. government's official web portal to all federal, state and local government web resources and services.